sensor_id;sensor_type;location;lat;lon;timestamp;P1;durP1;ratioP1;P2;durP2;ratioP2
56653;SDS011;45096;52.302;4.634;2022-11-10T00:02:24;3.72;;;1.48;;
56653;SDS011;45096;52.302;4.634;2022-11-10T00:04:50;2.83;;;1.45;;
56653;SDS011;45096;52.302;4.634;2022-11-10T00:07:17;2.20;;;1.20;;
56653;SDS011;45096;52.302;4.634;2022-11-10T00:09:42;1.38;;;1.27;;
56653;SDS011;45096;52.302;4.634;2022-11-10T00:12:07;5.72;;;1.60;;
56653;SDS011;45096;52.302;4.634;2022-11-10T00:14:33;2.47;;;1.88;;
56653;SDS011;45096;52.302;4.634;2022-11-10T00:16:58;2.55;;;1.50;;
56653;SDS011;45096;52.302;4.634;2022-11-10T00:19:23;2.10;;;1.40;;
56653;SDS011;45096;52.302;4.634;2022-11-10T00:21:49;2.58;;;1.20;;
56653;SDS011;45096;52.302;4.634;2022-11-10T00:24:16;2.42;;;1.50;;
56653;SDS011;45096;52.302;4.634;2022-11-10T00:26:41;2.60;;;1.73;;
56653;SDS011;45096;52.302;4.634;2022-11-10T00:29:06;4.15;;;1.67;;
56653;SDS011;45096;52.302;4.634;2022-11-10T00:31:32;4.90;;;1.33;;
56653;SDS011;45096;52.302;4.634;2022-11-10T00:33:57;3.33;;;1.65;;
56653;SDS011;45096;52.302;4.634;2022-11-10T00:36:23;2.03;;;1.35;;
56653;SDS011;45096;52.302;4.634;2022-11-10T00:38:48;4.45;;;1.70;;
56653;SDS011;45096;52.302;4.634;2022-11-10T00:41:15;2.13;;;1.45;;
56653;SDS011;45096;52.302;4.634;2022-11-10T00:43:41;4.40;;;1.50;;
56653;SDS011;45096;52.302;4.634;2022-11-10T00:46:06;4.85;;;1.67;;
56653;SDS011;45096;52.302;4.634;2022-11-10T00:48:31;3.75;;;1.63;;
56653;SDS011;45096;52.302;4.634;2022-11-10T00:50:57;4.15;;;1.45;;
56653;SDS011;45096;52.302;4.634;2022-11-10T00:53:22;3.95;;;1.70;;
56653;SDS011;45096;52.302;4.634;2022-11-10T00:55:48;2.13;;;1.55;;
56653;SDS011;45096;52.302;4.634;2022-11-10T00:58:15;4.05;;;1.50;;
56653;SDS011;45096;52.302;4.634;2022-11-10T01:00:40;2.00;;;1.73;;
56653;SDS011;45096;52.302;4.634;2022-11-10T01:03:06;4.40;;;1.75;;
56653;SDS011;45096;52.302;4.634;2022-11-10T01:05:34;3.35;;;1.58;;
56653;SDS011;45096;52.302;4.634;2022-11-10T01:07:59;5.28;;;2.10;;
56653;SDS011;45096;52.302;4.634;2022-11-10T01:10:25;3.83;;;1.45;;
56653;SDS011;45096;52.302;4.634;2022-11-10T01:12:51;3.75;;;1.60;;
56653;SDS011;45096;52.302;4.634;2022-11-10T01:15:18;3.70;;;1.92;;
56653;SDS011;45096;52.302;4.634;2022-11-10T01:17:43;3.38;;;1.95;;
56653;SDS011;45096;52.302;4.634;2022-11-10T01:20:09;3.95;;;1.70;;
56653;SDS011;45096;52.302;4.634;2022-11-10T01:22:35;2.22;;;1.38;;
56653;SDS011;45096;52.302;4.634;2022-11-10T01:25:00;1.33;;;1.20;;
56653;SDS011;45096;52.302;4.634;2022-11-10T01:27:25;3.97;;;1.65;;
56653;SDS011;45096;52.302;4.634;2022-11-10T01:29:51;4.28;;;2.00;;
56653;SDS011;45096;52.302;4.634;2022-11-10T01:32:18;5.00;;;1.80;;
56653;SDS011;45096;52.302;4.634;2022-11-10T01:34:43;4.22;;;2.15;;
56653;SDS011;45096;52.302;4.634;2022-11-10T01:37:10;6.15;;;1.77;;
56653;SDS011;45096;52.302;4.634;2022-11-10T01:39:35;1.98;;;1.80;;
56653;SDS011;45096;52.302;4.634;2022-11-10T01:42:01;3.30;;;1.55;;
56653;SDS011;45096;52.302;4.634;2022-11-10T01:44:26;3.38;;;1.60;;
56653;SDS011;45096;52.302;4.634;2022-11-10T01:46:52;5.25;;;1.48;;
56653;SDS011;45096;52.302;4.634;2022-11-10T01:49:20;4.68;;;1.77;;
56653;SDS011;45096;52.302;4.634;2022-11-10T01:51:48;3.28;;;2.00;;
56653;SDS011;45096;52.302;4.634;2022-11-10T01:54:16;4.53;;;1.88;;
56653;SDS011;45096;52.302;4.634;2022-11-10T01:56:43;2.28;;;1.48;;
56653;SDS011;45096;52.302;4.634;2022-11-10T01:59:11;2.83;;;1.50;;
56653;SDS011;45096;52.302;4.634;2022-11-10T02:01:39;6.97;;;2.55;;
56653;SDS011;45096;52.302;4.634;2022-11-10T02:04:05;2.85;;;1.92;;
56653;SDS011;45096;52.302;4.634;2022-11-10T02:06:33;2.78;;;1.58;;
56653;SDS011;45096;52.302;4.634;2022-11-10T02:09:01;2.08;;;1.58;;
56653;SDS011;45096;52.302;4.634;2022-11-10T02:11:27;2.47;;;1.73;;
56653;SDS011;45096;52.302;4.634;2022-11-10T02:13:53;4.80;;;1.73;;
56653;SDS011;45096;52.302;4.634;2022-11-10T02:16:19;4.63;;;2.28;;
56653;SDS011;45096;52.302;4.634;2022-11-10T02:18:46;1.52;;;1.35;;
56653;SDS011;45096;52.302;4.634;2022-11-10T02:21:14;6.10;;;2.15;;
56653;SDS011;45096;52.302;4.634;2022-11-10T02:23:44;5.38;;;1.80;;
56653;SDS011;45096;52.302;4.634;2022-11-10T02:26:11;3.50;;;1.77;;
56653;SDS011;45096;52.302;4.634;2022-11-10T02:28:37;6.15;;;2.05;;
56653;SDS011;45096;52.302;4.634;2022-11-10T02:31:02;5.10;;;2.05;;
56653;SDS011;45096;52.302;4.634;2022-11-10T02:33:28;5.30;;;1.90;;
56653;SDS011;45096;52.302;4.634;2022-11-10T02:35:54;3.92;;;1.75;;
56653;SDS011;45096;52.302;4.634;2022-11-10T02:38:21;8.90;;;2.25;;
56653;SDS011;45096;52.302;4.634;2022-11-10T02:40:47;4.88;;;2.20;;
56653;SDS011;45096;52.302;4.634;2022-11-10T02:43:12;5.22;;;2.00;;
56653;SDS011;45096;52.302;4.634;2022-11-10T02:45:38;4.05;;;1.73;;
56653;SDS011;45096;52.302;4.634;2022-11-10T02:48:04;9.77;;;2.35;;
56653;SDS011;45096;52.302;4.634;2022-11-10T02:50:29;6.40;;;1.85;;
56653;SDS011;45096;52.302;4.634;2022-11-10T02:52:55;5.28;;;2.03;;
56653;SDS011;45096;52.302;4.634;2022-11-10T02:55:22;7.03;;;2.00;;
56653;SDS011;45096;52.302;4.634;2022-11-10T02:57:47;3.53;;;2.00;;
56653;SDS011;45096;52.302;4.634;2022-11-10T03:00:12;5.65;;;2.00;;
56653;SDS011;45096;52.302;4.634;2022-11-10T03:02:38;4.93;;;2.30;;
56653;SDS011;45096;52.302;4.634;2022-11-10T03:05:04;4.07;;;1.65;;
56653;SDS011;45096;52.302;4.634;2022-11-10T03:07:29;4.50;;;1.88;;
56653;SDS011;45096;52.302;4.634;2022-11-10T03:09:54;7.97;;;2.30;;
56653;SDS011;45096;52.302;4.634;2022-11-10T03:12:21;5.22;;;1.85;;
56653;SDS011;45096;52.302;4.634;2022-11-10T03:14:47;5.22;;;1.85;;
56653;SDS011;45096;52.302;4.634;2022-11-10T03:17:12;3.03;;;1.75;;
56653;SDS011;45096;52.302;4.634;2022-11-10T03:19:37;7.57;;;2.00;;
56653;SDS011;45096;52.302;4.634;2022-11-10T03:22:03;6.45;;;2.28;;
56653;SDS011;45096;52.302;4.634;2022-11-10T03:24:28;8.77;;;1.67;;
56653;SDS011;45096;52.302;4.634;2022-11-10T03:26:54;12.68;;;2.35;;
56653;SDS011;45096;52.302;4.634;2022-11-10T03:29:20;7.32;;;2.38;;
56653;SDS011;45096;52.302;4.634;2022-11-10T03:31:46;7.38;;;2.13;;
56653;SDS011;45096;52.302;4.634;2022-11-10T03:34:11;6.47;;;2.53;;
56653;SDS011;45096;52.302;4.634;2022-11-10T03:36:36;7.63;;;1.95;;
56653;SDS011;45096;52.302;4.634;2022-11-10T03:39:02;5.80;;;1.98;;
56653;SDS011;45096;52.302;4.634;2022-11-10T03:41:27;5.68;;;3.05;;
56653;SDS011;45096;52.302;4.634;2022-11-10T03:43:53;4.20;;;1.98;;
56653;SDS011;45096;52.302;4.634;2022-11-10T03:46:19;8.32;;;2.03;;
56653;SDS011;45096;52.302;4.634;2022-11-10T03:48:45;7.50;;;2.95;;
56653;SDS011;45096;52.302;4.634;2022-11-10T03:51:10;3.95;;;1.85;;
56653;SDS011;45096;52.302;4.634;2022-11-10T03:53:36;6.53;;;1.73;;
56653;SDS011;45096;52.302;4.634;2022-11-10T03:56:01;4.18;;;2.10;;
56653;SDS011;45096;52.302;4.634;2022-11-10T03:58:27;10.50;;;2.15;;
56653;SDS011;45096;52.302;4.634;2022-11-10T04:00:53;6.28;;;2.58;;
56653;SDS011;45096;52.302;4.634;2022-11-10T04:03:20;4.07;;;1.80;;
56653;SDS011;45096;52.302;4.634;2022-11-10T04:05:46;7.53;;;2.55;;
56653;SDS011;45096;52.302;4.634;2022-11-10T04:08:13;8.63;;;2.20;;
56653;SDS011;45096;52.302;4.634;2022-11-10T04:10:40;5.88;;;2.22;;
56653;SDS011;45096;52.302;4.634;2022-11-10T04:13:05;3.97;;;1.90;;
56653;SDS011;45096;52.302;4.634;2022-11-10T04:15:30;3.55;;;1.63;;
56653;SDS011;45096;52.302;4.634;2022-11-10T04:17:56;4.82;;;1.83;;
56653;SDS011;45096;52.302;4.634;2022-11-10T04:20:23;14.98;;;2.30;;
56653;SDS011;45096;52.302;4.634;2022-11-10T04:22:48;7.53;;;2.28;;
56653;SDS011;45096;52.302;4.634;2022-11-10T04:25:13;9.48;;;2.22;;
56653;SDS011;45096;52.302;4.634;2022-11-10T04:27:39;9.25;;;2.25;;
56653;SDS011;45096;52.302;4.634;2022-11-10T04:30:05;8.73;;;2.60;;
56653;SDS011;45096;52.302;4.634;2022-11-10T04:32:31;9.23;;;2.63;;
56653;SDS011;45096;52.302;4.634;2022-11-10T04:34:56;8.27;;;2.17;;
56653;SDS011;45096;52.302;4.634;2022-11-10T04:37:23;8.88;;;2.58;;
56653;SDS011;45096;52.302;4.634;2022-11-10T04:39:48;9.55;;;2.22;;
56653;SDS011;45096;52.302;4.634;2022-11-10T04:42:13;4.28;;;1.92;;
56653;SDS011;45096;52.302;4.634;2022-11-10T04:44:39;6.30;;;2.28;;
56653;SDS011;45096;52.302;4.634;2022-11-10T04:47:04;4.22;;;1.90;;
56653;SDS011;45096;52.302;4.634;2022-11-10T04:49:30;10.57;;;2.88;;
56653;SDS011;45096;52.302;4.634;2022-11-10T04:51:55;5.13;;;2.22;;
56653;SDS011;45096;52.302;4.634;2022-11-10T04:54:22;7.82;;;2.38;;
56653;SDS011;45096;52.302;4.634;2022-11-10T04:56:47;3.55;;;2.00;;
56653;SDS011;45096;52.302;4.634;2022-11-10T04:59:13;3.65;;;2.00;;
56653;SDS011;45096;52.302;4.634;2022-11-10T05:01:38;7.40;;;2.35;;
56653;SDS011;45096;52.302;4.634;2022-11-10T05:04:04;7.80;;;2.63;;
56653;SDS011;45096;52.302;4.634;2022-11-10T05:06:29;5.30;;;1.77;;
56653;SDS011;45096;52.302;4.634;2022-11-10T05:08:54;8.63;;;3.33;;
56653;SDS011;45096;52.302;4.634;2022-11-10T05:11:21;6.10;;;2.63;;
56653;SDS011;45096;52.302;4.634;2022-11-10T05:13:46;8.52;;;2.50;;
56653;SDS011;45096;52.302;4.634;2022-11-10T05:16:12;10.80;;;3.10;;
56653;SDS011;45096;52.302;4.634;2022-11-10T05:18:38;8.38;;;2.70;;
56653;SDS011;45096;52.302;4.634;2022-11-10T05:21:03;6.68;;;2.50;;
56653;SDS011;45096;52.302;4.634;2022-11-10T05:23:29;8.70;;;2.65;;
56653;SDS011;45096;52.302;4.634;2022-11-10T05:25:54;10.80;;;2.47;;
56653;SDS011;45096;52.302;4.634;2022-11-10T05:28:21;9.00;;;3.50;;
56653;SDS011;45096;52.302;4.634;2022-11-10T05:30:46;11.18;;;3.80;;
56653;SDS011;45096;52.302;4.634;2022-11-10T05:33:12;10.45;;;3.22;;
56653;SDS011;45096;52.302;4.634;2022-11-10T05:35:37;9.68;;;2.35;;
56653;SDS011;45096;52.302;4.634;2022-11-10T05:38:03;9.80;;;2.55;;
56653;SDS011;45096;52.302;4.634;2022-11-10T05:40:29;7.72;;;2.47;;
56653;SDS011;45096;52.302;4.634;2022-11-10T05:42:55;10.73;;;3.70;;
56653;SDS011;45096;52.302;4.634;2022-11-10T05:45:23;10.75;;;2.63;;
56653;SDS011;45096;52.302;4.634;2022-11-10T05:47:50;9.93;;;2.60;;
56653;SDS011;45096;52.302;4.634;2022-11-10T05:50:16;11.20;;;2.25;;
56653;SDS011;45096;52.302;4.634;2022-11-10T05:52:43;8.10;;;2.92;;
56653;SDS011;45096;52.302;4.634;2022-11-10T05:55:09;8.48;;;2.45;;
56653;SDS011;45096;52.302;4.634;2022-11-10T05:57:35;7.75;;;2.45;;
56653;SDS011;45096;52.302;4.634;2022-11-10T06:00:01;5.35;;;2.80;;
56653;SDS011;45096;52.302;4.634;2022-11-10T06:02:28;10.52;;;3.03;;
56653;SDS011;45096;52.302;4.634;2022-11-10T06:04:53;5.40;;;2.08;;
56653;SDS011;45096;52.302;4.634;2022-11-10T06:07:19;11.82;;;2.72;;
56653;SDS011;45096;52.302;4.634;2022-11-10T06:09:44;7.72;;;2.05;;
56653;SDS011;45096;52.302;4.634;2022-11-10T06:12:09;10.00;;;2.38;;
56653;SDS011;45096;52.302;4.634;2022-11-10T06:14:35;10.35;;;2.25;;
56653;SDS011;45096;52.302;4.634;2022-11-10T06:17:00;7.57;;;2.72;;
56653;SDS011;45096;52.302;4.634;2022-11-10T06:19:27;5.97;;;1.98;;
56653;SDS011;45096;52.302;4.634;2022-11-10T06:21:52;5.25;;;2.20;;
56653;SDS011;45096;52.302;4.634;2022-11-10T06:24:18;4.75;;;1.98;;
56653;SDS011;45096;52.302;4.634;2022-11-10T06:26:43;5.15;;;2.20;;
56653;SDS011;45096;52.302;4.634;2022-11-10T06:29:09;7.50;;;2.38;;
56653;SDS011;45096;52.302;4.634;2022-11-10T06:31:34;9.32;;;2.92;;
56653;SDS011;45096;52.302;4.634;2022-11-10T06:33:59;7.82;;;2.83;;
56653;SDS011;45096;52.302;4.634;2022-11-10T06:36:26;4.72;;;2.85;;
56653;SDS011;45096;52.302;4.634;2022-11-10T06:38:52;11.50;;;2.67;;
56653;SDS011;45096;52.302;4.634;2022-11-10T06:41:17;6.93;;;2.47;;
56653;SDS011;45096;52.302;4.634;2022-11-10T06:43:43;9.55;;;2.75;;
56653;SDS011;45096;52.302;4.634;2022-11-10T06:46:08;10.82;;;2.17;;
56653;SDS011;45096;52.302;4.634;2022-11-10T06:48:33;5.78;;;1.95;;
56653;SDS011;45096;52.302;4.634;2022-11-10T06:50:59;9.05;;;2.65;;
56653;SDS011;45096;52.302;4.634;2022-11-10T06:53:26;5.53;;;2.47;;
56653;SDS011;45096;52.302;4.634;2022-11-10T06:55:51;5.63;;;2.28;;
56653;SDS011;45096;52.302;4.634;2022-11-10T06:58:16;6.80;;;2.50;;
56653;SDS011;45096;52.302;4.634;2022-11-10T07:00:42;4.25;;;1.90;;
56653;SDS011;45096;52.302;4.634;2022-11-10T07:03:09;6.15;;;2.30;;
56653;SDS011;45096;52.302;4.634;2022-11-10T07:05:36;5.03;;;2.05;;
56653;SDS011;45096;52.302;4.634;2022-11-10T07:08:02;7.72;;;2.40;;
56653;SDS011;45096;52.302;4.634;2022-11-10T07:10:29;8.35;;;2.20;;
56653;SDS011;45096;52.302;4.634;2022-11-10T07:12:55;5.68;;;2.10;;
56653;SDS011;45096;52.302;4.634;2022-11-10T07:15:21;7.85;;;3.03;;
56653;SDS011;45096;52.302;4.634;2022-11-10T07:17:46;5.20;;;2.10;;
56653;SDS011;45096;52.302;4.634;2022-11-10T07:20:11;6.15;;;1.92;;
56653;SDS011;45096;52.302;4.634;2022-11-10T07:22:37;6.82;;;2.10;;
56653;SDS011;45096;52.302;4.634;2022-11-10T07:25:02;9.38;;;2.38;;
56653;SDS011;45096;52.302;4.634;2022-11-10T07:27:30;5.25;;;2.10;;
56653;SDS011;45096;52.302;4.634;2022-11-10T07:29:55;4.60;;;2.40;;
56653;SDS011;45096;52.302;4.634;2022-11-10T07:32:20;12.23;;;4.30;;
56653;SDS011;45096;52.302;4.634;2022-11-10T07:34:46;6.20;;;3.17;;
56653;SDS011;45096;52.302;4.634;2022-11-10T07:37:11;7.40;;;3.47;;
56653;SDS011;45096;52.302;4.634;2022-11-10T07:39:36;7.18;;;2.88;;
56653;SDS011;45096;52.302;4.634;2022-11-10T07:42:02;7.30;;;2.70;;
56653;SDS011;45096;52.302;4.634;2022-11-10T07:44:29;12.15;;;2.95;;
56653;SDS011;45096;52.302;4.634;2022-11-10T07:46:54;9.73;;;3.10;;
56653;SDS011;45096;52.302;4.634;2022-11-10T07:49:19;12.38;;;2.72;;
56653;SDS011;45096;52.302;4.634;2022-11-10T07:51:45;8.20;;;2.63;;
56653;SDS011;45096;52.302;4.634;2022-11-10T07:54:10;8.05;;;2.75;;
56653;SDS011;45096;52.302;4.634;2022-11-10T07:56:36;13.27;;;3.25;;
56653;SDS011;45096;52.302;4.634;2022-11-10T07:59:01;10.55;;;2.95;;
56653;SDS011;45096;52.302;4.634;2022-11-10T08:01:28;7.95;;;2.95;;
56653;SDS011;45096;52.302;4.634;2022-11-10T08:03:54;7.18;;;3.05;;
56653;SDS011;45096;52.302;4.634;2022-11-10T08:06:19;12.18;;;3.55;;
56653;SDS011;45096;52.302;4.634;2022-11-10T08:08:44;9.02;;;3.00;;
56653;SDS011;45096;52.302;4.634;2022-11-10T08:11:10;10.43;;;2.58;;
56653;SDS011;45096;52.302;4.634;2022-11-10T08:13:35;10.10;;;2.80;;
56653;SDS011;45096;52.302;4.634;2022-11-10T08:16:01;7.03;;;2.90;;
56653;SDS011;45096;52.302;4.634;2022-11-10T08:18:27;4.03;;;2.13;;
56653;SDS011;45096;52.302;4.634;2022-11-10T08:20:53;13.05;;;2.95;;
56653;SDS011;45096;52.302;4.634;2022-11-10T08:23:18;6.55;;;2.80;;
56653;SDS011;45096;52.302;4.634;2022-11-10T08:25:44;8.43;;;3.30;;
56653;SDS011;45096;52.302;4.634;2022-11-10T08:28:11;7.43;;;2.92;;
56653;SDS011;45096;52.302;4.634;2022-11-10T08:30:38;9.05;;;2.70;;
56653;SDS011;45096;52.302;4.634;2022-11-10T08:33:05;6.07;;;2.28;;
56653;SDS011;45096;52.302;4.634;2022-11-10T08:35:36;12.90;;;2.70;;
56653;SDS011;45096;52.302;4.634;2022-11-10T08:38:06;8.13;;;2.67;;
56653;SDS011;45096;52.302;4.634;2022-11-10T08:40:32;9.02;;;2.58;;
56653;SDS011;45096;52.302;4.634;2022-11-10T08:42:57;7.78;;;2.42;;
56653;SDS011;45096;52.302;4.634;2022-11-10T08:45:23;5.05;;;2.92;;
56653;SDS011;45096;52.302;4.634;2022-11-10T08:47:54;9.93;;;2.90;;
56653;SDS011;45096;52.302;4.634;2022-11-10T08:50:20;9.90;;;3.45;;
56653;SDS011;45096;52.302;4.634;2022-11-10T08:52:47;11.52;;;4.45;;
56653;SDS011;45096;52.302;4.634;2022-11-10T08:55:12;14.25;;;4.13;;
56653;SDS011;45096;52.302;4.634;2022-11-10T08:57:38;9.80;;;3.60;;
56653;SDS011;45096;52.302;4.634;2022-11-10T09:00:04;9.57;;;3.33;;
56653;SDS011;45096;52.302;4.634;2022-11-10T09:02:30;12.60;;;3.40;;
56653;SDS011;45096;52.302;4.634;2022-11-10T09:04:55;8.95;;;3.13;;
56653;SDS011;45096;52.302;4.634;2022-11-10T09:07:21;7.82;;;3.00;;
56653;SDS011;45096;52.302;4.634;2022-11-10T09:09:47;9.50;;;3.53;;
56653;SDS011;45096;52.302;4.634;2022-11-10T09:12:13;9.85;;;2.83;;
56653;SDS011;45096;52.302;4.634;2022-11-10T09:14:39;9.82;;;2.78;;
56653;SDS011;45096;52.302;4.634;2022-11-10T09:17:04;4.75;;;2.53;;
56653;SDS011;45096;52.302;4.634;2022-11-10T09:19:29;7.82;;;2.70;;
56653;SDS011;45096;52.302;4.634;2022-11-10T09:21:55;12.23;;;2.95;;
56653;SDS011;45096;52.302;4.634;2022-11-10T09:24:20;14.38;;;3.63;;
56653;SDS011;45096;52.302;4.634;2022-11-10T09:26:47;11.00;;;2.72;;
56653;SDS011;45096;52.302;4.634;2022-11-10T09:29:12;11.25;;;3.10;;
56653;SDS011;45096;52.302;4.634;2022-11-10T09:31:38;9.05;;;2.88;;
56653;SDS011;45096;52.302;4.634;2022-11-10T09:34:03;6.88;;;2.70;;
56653;SDS011;45096;52.302;4.634;2022-11-10T09:36:28;9.75;;;2.80;;
56653;SDS011;45096;52.302;4.634;2022-11-10T09:38:54;9.80;;;2.75;;
56653;SDS011;45096;52.302;4.634;2022-11-10T09:41:19;8.20;;;2.55;;
56653;SDS011;45096;52.302;4.634;2022-11-10T09:43:47;8.80;;;3.08;;
56653;SDS011;45096;52.302;4.634;2022-11-10T09:46:23;12.18;;;2.83;;
56653;SDS011;45096;52.302;4.634;2022-11-10T09:48:51;4.88;;;2.50;;
56653;SDS011;45096;52.302;4.634;2022-11-10T09:51:18;10.32;;;3.50;;
56653;SDS011;45096;52.302;4.634;2022-11-10T09:53:47;11.93;;;3.35;;
56653;SDS011;45096;52.302;4.634;2022-11-10T09:56:15;11.52;;;3.53;;
56653;SDS011;45096;52.302;4.634;2022-11-10T09:58:44;11.50;;;3.03;;
56653;SDS011;45096;52.302;4.634;2022-11-10T10:01:14;11.77;;;2.70;;
56653;SDS011;45096;52.302;4.634;2022-11-10T10:03:46;14.07;;;3.60;;
56653;SDS011;45096;52.302;4.634;2022-11-10T10:06:13;8.45;;;2.95;;
56653;SDS011;45096;52.302;4.634;2022-11-10T10:08:43;9.50;;;2.83;;
56653;SDS011;45096;52.302;4.634;2022-11-10T10:11:17;7.38;;;3.42;;
56653;SDS011;45096;52.302;4.634;2022-11-10T10:13:56;12.52;;;4.28;;
56653;SDS011;45096;52.302;4.634;2022-11-10T10:16:39;7.80;;;3.10;;
56653;SDS011;45096;52.302;4.634;2022-11-10T10:19:07;6.50;;;2.47;;
56653;SDS011;45096;52.302;4.634;2022-11-10T10:21:40;9.95;;;3.25;;
56653;SDS011;45096;52.302;4.634;2022-11-10T10:24:11;8.55;;;2.72;;
56653;SDS011;45096;52.302;4.634;2022-11-10T10:26:38;10.90;;;3.22;;
56653;SDS011;45096;52.302;4.634;2022-11-10T10:29:06;4.82;;;2.55;;
56653;SDS011;45096;52.302;4.634;2022-11-10T10:31:34;11.73;;;2.83;;
56653;SDS011;45096;52.302;4.634;2022-11-10T10:34:07;7.65;;;2.60;;
56653;SDS011;45096;52.302;4.634;2022-11-10T10:36:35;8.50;;;2.67;;
56653;SDS011;45096;52.302;4.634;2022-11-10T10:39:01;9.63;;;3.17;;
56653;SDS011;45096;52.302;4.634;2022-11-10T10:41:29;7.82;;;2.88;;
56653;SDS011;45096;52.302;4.634;2022-11-10T10:43:56;8.85;;;2.80;;
56653;SDS011;45096;52.302;4.634;2022-11-10T10:46:22;7.45;;;2.90;;
56653;SDS011;45096;52.302;4.634;2022-11-10T10:48:48;8.18;;;3.08;;
56653;SDS011;45096;52.302;4.634;2022-11-10T10:51:32;8.95;;;2.72;;
56653;SDS011;45096;52.302;4.634;2022-11-10T10:53:58;5.00;;;2.45;;
56653;SDS011;45096;52.302;4.634;2022-11-10T10:56:23;10.30;;;3.97;;
56653;SDS011;45096;52.302;4.634;2022-11-10T10:58:51;10.68;;;3.30;;
56653;SDS011;45096;52.302;4.634;2022-11-10T11:01:20;11.77;;;3.33;;
56653;SDS011;45096;52.302;4.634;2022-11-10T11:03:49;7.13;;;2.92;;
56653;SDS011;45096;52.302;4.634;2022-11-10T11:06:21;12.48;;;3.50;;
56653;SDS011;45096;52.302;4.634;2022-11-10T11:08:54;13.45;;;3.10;;
56653;SDS011;45096;52.302;4.634;2022-11-10T11:11:23;10.95;;;3.13;;
56653;SDS011;45096;52.302;4.634;2022-11-10T11:13:49;9.95;;;2.90;;
56653;SDS011;45096;52.302;4.634;2022-11-10T11:16:15;11.95;;;2.90;;
56653;SDS011;45096;52.302;4.634;2022-11-10T11:18:40;6.57;;;2.70;;
56653;SDS011;45096;52.302;4.634;2022-11-10T11:21:07;15.75;;;2.78;;
56653;SDS011;45096;52.302;4.634;2022-11-10T11:23:49;9.43;;;2.78;;
56653;SDS011;45096;52.302;4.634;2022-11-10T11:26:34;8.07;;;2.35;;
56653;SDS011;45096;52.302;4.634;2022-11-10T11:29:08;7.75;;;2.80;;
56653;SDS011;45096;52.302;4.634;2022-11-10T11:31:42;9.75;;;2.67;;
56653;SDS011;45096;52.302;4.634;2022-11-10T11:34:11;8.68;;;2.58;;
56653;SDS011;45096;52.302;4.634;2022-11-10T11:36:42;9.15;;;2.40;;
56653;SDS011;45096;52.302;4.634;2022-11-10T11:39:22;8.85;;;2.20;;
56653;SDS011;45096;52.302;4.634;2022-11-10T11:41:55;9.57;;;3.40;;
56653;SDS011;45096;52.302;4.634;2022-11-10T11:44:29;7.10;;;2.63;;
56653;SDS011;45096;52.302;4.634;2022-11-10T11:47:08;11.18;;;3.00;;
56653;SDS011;45096;52.302;4.634;2022-11-10T11:49:47;7.90;;;2.25;;
56653;SDS011;45096;52.302;4.634;2022-11-10T11:52:21;15.45;;;3.95;;
56653;SDS011;45096;52.302;4.634;2022-11-10T11:54:56;12.32;;;2.55;;
56653;SDS011;45096;52.302;4.634;2022-11-10T11:57:29;9.00;;;2.65;;
56653;SDS011;45096;52.302;4.634;2022-11-10T12:00:03;8.32;;;2.70;;
56653;SDS011;45096;52.302;4.634;2022-11-10T12:05:30;7.60;;;2.45;;
56653;SDS011;45096;52.302;4.634;2022-11-10T12:08:00;15.60;;;2.88;;
56653;SDS011;45096;52.302;4.634;2022-11-10T12:10:32;9.45;;;2.78;;
56653;SDS011;45096;52.302;4.634;2022-11-10T12:13:07;10.40;;;2.85;;
56653;SDS011;45096;52.302;4.634;2022-11-10T12:15:39;5.28;;;2.60;;
56653;SDS011;45096;52.302;4.634;2022-11-10T12:18:12;9.18;;;2.70;;
56653;SDS011;45096;52.302;4.634;2022-11-10T12:20:48;10.93;;;2.75;;
56653;SDS011;45096;52.302;4.634;2022-11-10T12:23:18;6.38;;;2.47;;
56653;SDS011;45096;52.302;4.634;2022-11-10T12:25:51;8.30;;;2.28;;
56653;SDS011;45096;52.302;4.634;2022-11-10T12:28:22;7.40;;;2.45;;
56653;SDS011;45096;52.302;4.634;2022-11-10T12:30:49;6.05;;;2.35;;
56653;SDS011;45096;52.302;4.634;2022-11-10T12:33:19;9.35;;;2.80;;
56653;SDS011;45096;52.302;4.634;2022-11-10T12:35:50;9.38;;;2.65;;
56653;SDS011;45096;52.302;4.634;2022-11-10T12:38:18;11.00;;;2.78;;
56653;SDS011;45096;52.302;4.634;2022-11-10T12:40:46;11.48;;;3.38;;
56653;SDS011;45096;52.302;4.634;2022-11-10T12:43:16;13.00;;;3.35;;
56653;SDS011;45096;52.302;4.634;2022-11-10T12:45:45;8.98;;;2.42;;
56653;SDS011;45096;52.302;4.634;2022-11-10T12:48:11;7.80;;;2.53;;
56653;SDS011;45096;52.302;4.634;2022-11-10T12:50:44;9.05;;;2.20;;
56653;SDS011;45096;52.302;4.634;2022-11-10T12:53:17;7.43;;;3.15;;
56653;SDS011;45096;52.302;4.634;2022-11-10T12:55:45;8.80;;;2.63;;
56653;SDS011;45096;52.302;4.634;2022-11-10T12:58:13;7.65;;;2.35;;
56653;SDS011;45096;52.302;4.634;2022-11-10T13:00:41;6.60;;;2.65;;
56653;SDS011;45096;52.302;4.634;2022-11-10T13:03:12;6.18;;;2.70;;
56653;SDS011;45096;52.302;4.634;2022-11-10T13:05:39;10.48;;;3.85;;
56653;SDS011;45096;52.302;4.634;2022-11-10T13:08:10;7.22;;;2.20;;
56653;SDS011;45096;52.302;4.634;2022-11-10T13:10:51;12.68;;;2.45;;
56653;SDS011;45096;52.302;4.634;2022-11-10T13:13:19;9.88;;;2.22;;
56653;SDS011;45096;52.302;4.634;2022-11-10T13:15:47;10.05;;;3.28;;
56653;SDS011;45096;52.302;4.634;2022-11-10T13:18:21;7.20;;;2.10;;
56653;SDS011;45096;52.302;4.634;2022-11-10T13:21:05;8.02;;;2.35;;
56653;SDS011;45096;52.302;4.634;2022-11-10T13:23:31;9.48;;;2.35;;
56653;SDS011;45096;52.302;4.634;2022-11-10T13:25:58;7.47;;;2.42;;
56653;SDS011;45096;52.302;4.634;2022-11-10T13:31:38;7.25;;;2.85;;
56653;SDS011;45096;52.302;4.634;2022-11-10T13:34:07;4.65;;;2.28;;
56653;SDS011;45096;52.302;4.634;2022-11-10T13:36:37;8.93;;;2.20;;
56653;SDS011;45096;52.302;4.634;2022-11-10T13:39:14;7.50;;;2.20;;
56653;SDS011;45096;52.302;4.634;2022-11-10T13:41:43;7.45;;;2.15;;
56653;SDS011;45096;52.302;4.634;2022-11-10T13:44:18;3.05;;;1.92;;
56653;SDS011;45096;52.302;4.634;2022-11-10T13:46:48;9.32;;;2.38;;
56653;SDS011;45096;52.302;4.634;2022-11-10T13:52:13;5.40;;;1.77;;
56653;SDS011;45096;52.302;4.634;2022-11-10T13:57:37;6.50;;;2.42;;
56653;SDS011;45096;52.302;4.634;2022-11-10T14:00:21;32.60;;;20.52;;
56653;SDS011;45096;52.302;4.634;2022-11-10T14:02:49;23.60;;;16.42;;
56653;SDS011;45096;52.302;4.634;2022-11-10T14:08:22;20.73;;;11.95;;
56653;SDS011;45096;52.302;4.634;2022-11-10T14:10:49;14.05;;;10.80;;
56653;SDS011;45096;52.302;4.634;2022-11-10T14:13:18;13.00;;;8.50;;
56653;SDS011;45096;52.302;4.634;2022-11-10T14:15:47;9.57;;;6.60;;
56653;SDS011;45096;52.302;4.634;2022-11-10T14:18:15;14.18;;;9.55;;
56653;SDS011;45096;52.302;4.634;2022-11-10T14:20:43;7.88;;;5.95;;
56653;SDS011;45096;52.302;4.634;2022-11-10T14:23:12;13.65;;;7.80;;
56653;SDS011;45096;52.302;4.634;2022-11-10T14:25:42;11.35;;;6.70;;
56653;SDS011;45096;52.302;4.634;2022-11-10T14:28:20;13.88;;;7.32;;
56653;SDS011;45096;52.302;4.634;2022-11-10T14:30:50;15.35;;;6.70;;
56653;SDS011;45096;52.302;4.634;2022-11-10T14:33:16;10.20;;;7.15;;
56653;SDS011;45096;52.302;4.634;2022-11-10T14:35:44;11.20;;;6.68;;
56653;SDS011;45096;52.302;4.634;2022-11-10T14:38:14;10.13;;;4.53;;
56653;SDS011;45096;52.302;4.634;2022-11-10T14:40:41;13.48;;;5.18;;
56653;SDS011;45096;52.302;4.634;2022-11-10T14:43:22;10.02;;;4.05;;
56653;SDS011;45096;52.302;4.634;2022-11-10T14:45:49;6.20;;;3.50;;
56653;SDS011;45096;52.302;4.634;2022-11-10T14:48:16;6.47;;;4.35;;
56653;SDS011;45096;52.302;4.634;2022-11-10T14:50:42;8.45;;;3.92;;
56653;SDS011;45096;52.302;4.634;2022-11-10T14:53:11;5.30;;;3.17;;
56653;SDS011;45096;52.302;4.634;2022-11-10T14:55:42;6.45;;;4.10;;
56653;SDS011;45096;52.302;4.634;2022-11-10T14:58:10;5.72;;;3.53;;
56653;SDS011;45096;52.302;4.634;2022-11-10T15:00:37;6.38;;;2.60;;
56653;SDS011;45096;52.302;4.634;2022-11-10T15:03:05;8.70;;;3.13;;